Time,TemperatureF,DewpointF,PressureIn,WindDirection,WindDirectionDegrees,WindSpeedMPH,WindSpeedGustMPH,Humidity,HourlyPrecipIn,Conditions,Clouds,dailyrainin,SoftwareType,DateUTC
2014-04-20 00:12:00,45.0,27.0,29.79,ESE,102,5.0,-999.0,50,-99.99,,,-99.99,,2014-04-20 06:12:00,
2014-04-20 00:22:00,44.0,27.0,29.79,ESE,102,1.0,-999.0,51,-99.99,,,-99.99,,2014-04-20 06:22:00,
2014-04-20 00:42:00,42.0,28.0,29.78,East,101,5.0,-999.0,58,-99.99,,,-99.99,,2014-04-20 06:42:00,
2014-04-20 00:52:00,41.0,28.0,29.78,East,93,4.0,-999.0,59,-99.99,,,-99.99,,2014-04-20 06:52:00,
2014-04-20 01:11:00,43.0,29.0,29.78,East,90,3.0,-999.0,57,-99.99,,,-99.99,,2014-04-20 07:11:00,
2014-04-20 01:22:00,42.0,29.0,29.78,ENE,70,5.0,-999.0,59,-99.99,,,-99.99,,2014-04-20 07:22:00,
2014-04-20 01:42:00,42.0,28.0,29.78,ENE,69,3.0,-999.0,58,-99.99,,,-99.99,,2014-04-20 07:42:00,
2014-04-20 01:52:00,42.0,28.0,29.78,ENE,69,3.0,-999.0,58,-99.99,,,-99.99,,2014-04-20 07:52:00,
2014-04-20 02:12:00,42.0,29.0,29.77,ENE,73,2.0,-999.0,59,-99.99,,,-99.99,,2014-04-20 08:12:00,
2014-04-20 02:22:00,42.0,29.0,29.77,SE,124,3.0,-999.0,59,-99.99,,,-99.99,,2014-04-20 08:22:00,
2014-04-20 02:32:00,42.0,29.0,29.77,SE,124,3.0,-999.0,59,-99.99,,,-99.99,,2014-04-20 08:32:00,
2014-04-20 02:43:00,42.0,29.0,29.77,SE,124,3.0,-999.0,59,-99.99,,,-99.99,,2014-04-20 08:43:00,
2014-04-20 02:52:00,43.0,28.0,29.75,SE,124,2.0,-999.0,56,-99.99,,,-99.99,,2014-04-20 08:52:00,
2014-04-20 03:11:00,43.0,28.0,29.75,ESE,119,3.0,-999.0,56,-99.99,,,-99.99,,2014-04-20 09:11:00,
2014-04-20 03:22:00,43.0,27.0,29.75,ESE,117,5.0,-999.0,53,-99.99,,,-99.99,,2014-04-20 09:22:00,
2014-04-20 03:33:00,43.0,27.0,29.75,ESE,117,5.0,-999.0,53,-99.99,,,-99.99,,2014-04-20 09:33:00,
2014-04-20 03:43:00,43.0,27.0,29.75,ESE,117,5.0,-999.0,53,-99.99,,,-99.99,,2014-04-20 09:43:00,
2014-04-20 03:54:00,43.0,28.0,29.73,ESE,107,8.0,-999.0,54,-99.99,,,-99.99,,2014-04-20 09:54:00,
2014-04-20 04:13:00,42.0,27.0,29.73,SE,125,3.0,-999.0,55,-99.99,,,-99.99,,2014-04-20 10:13:00,
2014-04-20 04:23:00,42.0,27.0,29.73,SE,125,3.0,-999.0,55,-99.99,,,-99.99,,2014-04-20 10:23:00,
2014-04-20 04:33:00,42.0,27.0,29.73,SE,125,3.0,-999.0,55,-99.99,,,-99.99,,2014-04-20 10:33:00,
2014-04-20 04:43:00,42.0,27.0,29.73,SE,125,3.0,-999.0,55,-99.99,,,-99.99,,2014-04-20 10:43:00,
2014-04-20 04:53:00,41.0,27.0,29.72,SE,125,1.0,-999.0,56,-99.99,,,-99.99,,2014-04-20 10:53:00,
2014-04-20 05:12:00,41.0,27.0,29.72,SE,125,1.0,-999.0,56,-99.99,,,-99.99,,2014-04-20 11:12:00,
2014-04-20 05:22:00,41.0,26.0,29.72,SE,125,4.0,-999.0,55,-99.99,,,-99.99,,2014-04-20 11:22:00,
2014-04-20 05:43:00,41.0,27.0,29.72,SE,125,0.0,-999.0,56,-99.99,,,-99.99,,2014-04-20 11:43:00,
2014-04-20 05:52:00,41.0,27.0,29.71,SE,125,1.0,-999.0,57,-99.99,,,-99.99,,2014-04-20 11:52:00,
2014-04-20 06:12:00,41.0,27.0,29.71,East,94,6.0,-999.0,58,-99.99,,,-99.99,,2014-04-20 12:12:00,
2014-04-20 06:22:00,41.0,27.0,29.70,East,84,0.0,-999.0,57,-99.99,,,-99.99,,2014-04-20 12:22:00,
2014-04-20 06:42:00,41.0,27.0,29.71,WSW,255,3.0,-999.0,57,-99.99,,,-99.99,,2014-04-20 12:42:00,
2014-04-20 06:53:00,41.0,28.0,29.76,WSW,253,1.0,-999.0,59,-99.99,,,-99.99,,2014-04-20 12:53:00,
2014-04-20 07:12:00,39.0,27.0,29.75,WSW,253,1.0,-999.0,63,-99.99,,,-99.99,,2014-04-20 13:12:00,
2014-04-20 07:22:00,39.0,27.0,29.75,WSW,253,1.0,-999.0,63,-99.99,,,-99.99,,2014-04-20 13:22:00,
2014-04-20 07:32:00,39.0,27.0,29.75,WSW,253,1.0,-999.0,63,-99.99,,,-99.99,,2014-04-20 13:32:00,
2014-04-20 07:42:00,39.0,27.0,29.75,WSW,253,1.0,-999.0,63,-99.99,,,-99.99,,2014-04-20 13:42:00,
2014-04-20 07:52:00,38.0,29.0,29.79,West,268,6.0,-999.0,71,-99.99,,,-99.99,,2014-04-20 13:52:00,
2014-04-20 08:11:00,39.0,30.0,29.83,WSW,255,1.0,-999.0,71,-99.99,,,-99.99,,2014-04-20 14:11:00,
2014-04-20 08:22:00,41.0,31.0,29.81,SW,227,5.0,-999.0,67,-99.99,,,-99.99,,2014-04-20 14:22:00,
2014-04-20 08:42:00,43.0,30.0,29.83,NW,325,5.0,-999.0,60,-99.99,,,-99.99,,2014-04-20 14:42:00,
2014-04-20 08:52:00,43.0,30.0,29.83,NW,325,5.0,-999.0,60,-99.99,,,-99.99,,2014-04-20 14:52:00,
2014-04-20 09:01:00,43.0,30.0,29.83,NW,325,5.0,-999.0,60,-99.99,,,-99.99,,2014-04-20 15:01:00,
2014-04-20 09:11:00,43.0,30.0,29.83,NW,325,5.0,-999.0,60,-99.99,,,-99.99,,2014-04-20 15:11:00,
2014-04-20 09:53:00,55.0,28.0,29.83,WNW,283,22.0,-999.0,35,-99.99,,,-99.99,,2014-04-20 15:53:00,
2014-04-20 10:13:00,56.0,27.0,29.83,WNW,283,24.0,-999.0,32,-99.99,,,-99.99,,2014-04-20 16:13:00,
2014-04-20 10:23:00,57.0,27.0,29.84,WNW,283,18.0,-999.0,31,-99.99,,,-99.99,,2014-04-20 16:23:00,
2014-04-20 10:43:00,59.0,26.0,29.84,West,263,21.0,-999.0,28,-99.99,,,-99.99,,2014-04-20 16:43:00,
2014-04-20 10:53:00,59.0,25.0,29.82,WSW,256,23.0,-999.0,27,-99.99,,,-99.99,,2014-04-20 16:53:00,
2014-04-20 11:22:00,59.0,24.0,29.82,WNW,301,24.0,-999.0,26,-99.99,,,-99.99,,2014-04-20 17:22:00,
2014-04-20 11:43:00,60.0,25.0,29.83,WNW,299,25.0,-999.0,26,-99.99,,,-99.99,,2014-04-20 17:43:00,
2014-04-20 11:53:00,61.0,26.0,29.83,West,273,23.0,-999.0,26,-99.99,,,-99.99,,2014-04-20 17:53:00,
2014-04-20 12:12:00,60.0,27.0,29.84,NW,311,26.0,-999.0,28,-99.99,,,-99.99,,2014-04-20 18:12:00,
2014-04-20 12:22:00,60.0,26.0,29.84,NW,311,25.0,-999.0,27,-99.99,,,-99.99,,2014-04-20 18:22:00,
2014-04-20 12:52:00,62.0,28.0,29.85,WNW,292,22.0,-999.0,27,-99.99,,,-99.99,,2014-04-20 18:52:00,
2014-04-20 13:12:00,62.0,27.0,29.85,WNW,296,23.0,-999.0,26,-99.99,,,-99.99,,2014-04-20 19:12:00,
2014-04-20 13:22:00,62.0,27.0,29.84,WNW,292,26.0,-999.0,26,-99.99,,,-99.99,,2014-04-20 19:22:00,
2014-04-20 13:42:00,62.0,27.0,29.85,WNW,292,21.0,-999.0,26,-99.99,,,-99.99,,2014-04-20 19:42:00,
2014-04-20 13:52:00,61.0,26.0,29.85,West,273,20.0,-999.0,26,-99.99,,,-99.99,,2014-04-20 19:52:00,
2014-04-20 14:12:00,63.0,28.0,29.85,West,275,20.0,-999.0,26,-99.99,,,-99.99,,2014-04-20 20:12:00,
2014-04-20 14:22:00,62.0,27.0,29.86,NW,306,21.0,-999.0,26,-99.99,,,-99.99,,2014-04-20 20:22:00,
2014-04-20 14:42:00,63.0,25.0,29.85,WNW,296,21.0,-999.0,23,-99.99,,,-99.99,,2014-04-20 20:42:00,
2014-04-20 14:52:00,62.0,26.0,29.85,WNW,286,20.0,-999.0,25,-99.99,,,-99.99,,2014-04-20 20:52:00,
2014-04-20 15:12:00,62.0,26.0,29.85,West,279,22.0,-999.0,25,-99.99,,,-99.99,,2014-04-20 21:12:00,
2014-04-20 15:22:00,62.0,24.0,29.86,WNW,293,21.0,-999.0,23,-99.99,,,-99.99,,2014-04-20 21:22:00,
2014-04-20 15:43:00,61.0,27.0,29.86,WNW,283,19.0,-999.0,27,-99.99,,,-99.99,,2014-04-20 21:43:00,
2014-04-20 15:53:00,61.0,27.0,29.86,NW,307,26.0,-999.0,27,-99.99,,,-99.99,,2014-04-20 21:53:00,
2014-04-20 16:23:00,62.0,27.0,29.86,NW,304,23.0,-999.0,26,-99.99,,,-99.99,,2014-04-20 22:23:00,